• Join FlightAware (Why Join?)
  • Login
  • US Flag 
12:08PM EDT


 

Airport Tracker/Info


-or-


 

Live Flight TrackerFlight Track Log ✈ KAP5 ✈ 30-Jun-2013 ✈ KMVY - KBOS

Flight Track Log - Related Links

Times and Time Zones

All times are in EDT time to prevent confusion due to time zone crossing. See the KAP5 flight status page for this flight to view local times or setup timezone preferences in your user account.

Time Position Orientation Groundspeed Altitude Reporting Facility
EDT Latitude Longitude Course Direction KTS MPH feet Rate Location/Type
11:40AM 41.5227 -70.6655 343° North  Level Estimated
11:41AM 41.5442 -70.6741 343° North  Level Estimated
11:42AM 41.5658 -70.6828 343° North  Level Estimated
11:43AM 41.5873 -70.6914 343° North  Level Estimated
11:44AM 41.6089 -70.7000 343° North  Level Estimated
11:45AM 41.6304 -70.7087 343° North  Level Estimated
11:46AM 41.6519 -70.7173 343° North  Level Estimated
11:46AM 41.9167 -70.5833 343° North 180 207 4,000  Level KA90
11:47AM 41.6735 -70.7260 343° North  Level Estimated
11:48AM 41.6950 -70.7347 343° North  Level Estimated
11:48AM 41.9667 -70.6333 323° Northwest 170 196 4,000  Level KA90
11:49AM 41.7166 -70.7433 343° North  Level Estimated
11:49AM 42.0167 -70.6500 346° North 186 214 4,000  Level KA90
11:50AM 41.7381 -70.7520 343° North  Level Estimated
11:50AM 42.0667 -70.6167 26° Northeast 188 216 4,000  Level KA90
11:50AM 42.1167 -70.6000 14° North 198 228 3,500 -540 Descending KA90
11:51AM 41.7596 -70.7607 343° North  Level Estimated
11:51AM 42.1667 -70.6000 360° North 210 242 3,000  Level KA90
11:52AM 41.7812 -70.7694 343° North  Level Estimated
11:52AM 42.2167 -70.6000 360° North 187 215 3,000  Level KA90
11:53AM 42.2667 -70.6167 346° North 177 204 3,000  Level KA90
11:54AM 42.3000 -70.6500 324° Northwest 178 205 3,000  Level KA90
11:55AM 42.3500 -70.6833 334° Northwest 170 196 3,000  Level KA90
11:57AM 42.3833 -70.7333 312° West 163 188 3,000 -60 Level KA90
11:57AM 42.4000 -70.7833 294° West 160 184 2,900 -420 Descending KA90
11:59AM 42.3833 -70.8500 251° West 167 192 2,200 -840 Descending KA90
11:59AM 42.3833 -70.9000 270° West 174 200 1,300 -960 Descending KA90
12:00PM 42.3667 -70.9667 251° West 180 207 400 -900 Descending KA90
12:02PM 42.3637 -70.9984 263° West  Level Estimated
12:09PM 42.3630 -71.0064 263° West  Level Estimated